sensor_id;sensor_type;location;lat;lon;timestamp;P1;durP1;ratioP1;P2;durP2;ratioP2
43807;SDS011;29438;50.664;10.098;2022-08-19T00:00:03;26.05;;;16.85;;
43807;SDS011;29438;50.664;10.098;2022-08-19T00:02:32;25.83;;;15.73;;
43807;SDS011;29438;50.664;10.098;2022-08-19T00:04:58;25.77;;;15.70;;
43807;SDS011;29438;50.664;10.098;2022-08-19T00:07:23;24.95;;;15.18;;
43807;SDS011;29438;50.664;10.098;2022-08-19T00:09:49;23.33;;;15.32;;
43807;SDS011;29438;50.664;10.098;2022-08-19T00:12:14;24.40;;;15.57;;
43807;SDS011;29438;50.664;10.098;2022-08-19T00:14:40;24.50;;;15.20;;
43807;SDS011;29438;50.664;10.098;2022-08-19T00:17:06;25.52;;;15.48;;
43807;SDS011;29438;50.664;10.098;2022-08-19T00:19:33;23.30;;;14.60;;
43807;SDS011;29438;50.664;10.098;2022-08-19T00:22:00;22.70;;;14.38;;
43807;SDS011;29438;50.664;10.098;2022-08-19T00:24:27;23.65;;;15.40;;
43807;SDS011;29438;50.664;10.098;2022-08-19T00:26:53;23.45;;;14.45;;
43807;SDS011;29438;50.664;10.098;2022-08-19T00:29:20;23.75;;;14.93;;
43807;SDS011;29438;50.664;10.098;2022-08-19T00:31:48;22.85;;;15.48;;
43807;SDS011;29438;50.664;10.098;2022-08-19T00:34:15;22.60;;;14.13;;
43807;SDS011;29438;50.664;10.098;2022-08-19T00:36:41;24.17;;;15.05;;
43807;SDS011;29438;50.664;10.098;2022-08-19T00:39:07;24.90;;;15.52;;
43807;SDS011;29438;50.664;10.098;2022-08-19T00:41:34;25.05;;;15.75;;
43807;SDS011;29438;50.664;10.098;2022-08-19T00:44:01;24.20;;;14.85;;
43807;SDS011;29438;50.664;10.098;2022-08-19T00:46:29;21.15;;;14.07;;
43807;SDS011;29438;50.664;10.098;2022-08-19T00:48:56;24.48;;;14.82;;
43807;SDS011;29438;50.664;10.098;2022-08-19T00:51:23;21.20;;;14.27;;
43807;SDS011;29438;50.664;10.098;2022-08-19T00:53:52;23.90;;;14.77;;
43807;SDS011;29438;50.664;10.098;2022-08-19T00:56:19;21.30;;;14.73;;
43807;SDS011;29438;50.664;10.098;2022-08-19T00:58:45;21.33;;;14.15;;
43807;SDS011;29438;50.664;10.098;2022-08-19T01:01:11;22.15;;;14.80;;
43807;SDS011;29438;50.664;10.098;2022-08-19T01:03:36;22.75;;;15.38;;
43807;SDS011;29438;50.664;10.098;2022-08-19T01:06:02;22.85;;;15.27;;
43807;SDS011;29438;50.664;10.098;2022-08-19T01:08:27;22.85;;;15.23;;
43807;SDS011;29438;50.664;10.098;2022-08-19T01:10:54;22.67;;;15.32;;
43807;SDS011;29438;50.664;10.098;2022-08-19T01:13:23;21.38;;;14.13;;
43807;SDS011;29438;50.664;10.098;2022-08-19T01:15:56;22.83;;;14.93;;
43807;SDS011;29438;50.664;10.098;2022-08-19T01:18:28;22.55;;;14.90;;
43807;SDS011;29438;50.664;10.098;2022-08-19T01:20:55;21.95;;;14.18;;
43807;SDS011;29438;50.664;10.098;2022-08-19T01:23:31;20.80;;;13.80;;
43807;SDS011;29438;50.664;10.098;2022-08-19T01:26:13;20.95;;;13.35;;
43807;SDS011;29438;50.664;10.098;2022-08-19T01:28:41;21.02;;;14.65;;
43807;SDS011;29438;50.664;10.098;2022-08-19T01:31:09;22.95;;;14.05;;
43807;SDS011;29438;50.664;10.098;2022-08-19T01:33:37;22.33;;;14.27;;
43807;SDS011;29438;50.664;10.098;2022-08-19T01:36:04;21.48;;;14.02;;
43807;SDS011;29438;50.664;10.098;2022-08-19T01:38:36;22.48;;;15.27;;
43807;SDS011;29438;50.664;10.098;2022-08-19T01:41:04;23.60;;;15.35;;
43807;SDS011;29438;50.664;10.098;2022-08-19T01:43:30;24.63;;;14.88;;
43807;SDS011;29438;50.664;10.098;2022-08-19T01:45:57;26.98;;;16.88;;
43807;SDS011;29438;50.664;10.098;2022-08-19T01:48:22;25.05;;;16.10;;
43807;SDS011;29438;50.664;10.098;2022-08-19T01:50:48;27.73;;;16.55;;
43807;SDS011;29438;50.664;10.098;2022-08-19T01:53:14;27.15;;;16.52;;
43807;SDS011;29438;50.664;10.098;2022-08-19T01:55:41;26.10;;;17.00;;
43807;SDS011;29438;50.664;10.098;2022-08-19T01:58:08;25.00;;;15.77;;
43807;SDS011;29438;50.664;10.098;2022-08-19T02:00:38;26.55;;;17.08;;
43807;SDS011;29438;50.664;10.098;2022-08-19T02:03:03;24.88;;;15.68;;
43807;SDS011;29438;50.664;10.098;2022-08-19T02:05:29;29.13;;;17.00;;
43807;SDS011;29438;50.664;10.098;2022-08-19T02:07:56;29.08;;;17.50;;
43807;SDS011;29438;50.664;10.098;2022-08-19T02:10:22;28.67;;;17.77;;
43807;SDS011;29438;50.664;10.098;2022-08-19T02:12:48;26.77;;;16.80;;
43807;SDS011;29438;50.664;10.098;2022-08-19T02:15:14;27.50;;;17.08;;
43807;SDS011;29438;50.664;10.098;2022-08-19T02:17:41;29.15;;;16.92;;
43807;SDS011;29438;50.664;10.098;2022-08-19T02:20:07;29.23;;;16.80;;
43807;SDS011;29438;50.664;10.098;2022-08-19T02:22:33;26.88;;;16.98;;
43807;SDS011;29438;50.664;10.098;2022-08-19T02:25:00;25.75;;;16.48;;
43807;SDS011;29438;50.664;10.098;2022-08-19T02:27:26;29.33;;;17.30;;
43807;SDS011;29438;50.664;10.098;2022-08-19T02:29:52;30.65;;;18.05;;
43807;SDS011;29438;50.664;10.098;2022-08-19T02:32:18;33.28;;;20.77;;
43807;SDS011;29438;50.664;10.098;2022-08-19T02:34:44;34.88;;;20.25;;
43807;SDS011;29438;50.664;10.098;2022-08-19T02:37:11;32.17;;;20.98;;
43807;SDS011;29438;50.664;10.098;2022-08-19T02:39:56;35.50;;;23.40;;
43807;SDS011;29438;50.664;10.098;2022-08-19T02:42:22;38.03;;;25.08;;
43807;SDS011;29438;50.664;10.098;2022-08-19T02:44:48;39.95;;;26.73;;
43807;SDS011;29438;50.664;10.098;2022-08-19T02:47:14;36.50;;;24.67;;
43807;SDS011;29438;50.664;10.098;2022-08-19T02:49:40;37.35;;;25.75;;
43807;SDS011;29438;50.664;10.098;2022-08-19T02:52:06;39.20;;;26.65;;
43807;SDS011;29438;50.664;10.098;2022-08-19T02:54:32;40.97;;;26.13;;
43807;SDS011;29438;50.664;10.098;2022-08-19T02:56:58;39.38;;;25.85;;
43807;SDS011;29438;50.664;10.098;2022-08-19T02:59:24;41.63;;;25.10;;
43807;SDS011;29438;50.664;10.098;2022-08-19T03:01:51;40.95;;;25.08;;
43807;SDS011;29438;50.664;10.098;2022-08-19T03:04:17;38.60;;;24.42;;
43807;SDS011;29438;50.664;10.098;2022-08-19T03:06:44;35.22;;;24.15;;
43807;SDS011;29438;50.664;10.098;2022-08-19T03:09:11;37.53;;;25.65;;
43807;SDS011;29438;50.664;10.098;2022-08-19T03:11:38;41.47;;;25.90;;
43807;SDS011;29438;50.664;10.098;2022-08-19T03:14:04;37.28;;;24.52;;
43807;SDS011;29438;50.664;10.098;2022-08-19T03:16:35;38.33;;;25.10;;
43807;SDS011;29438;50.664;10.098;2022-08-19T03:19:06;38.85;;;24.85;;
43807;SDS011;29438;50.664;10.098;2022-08-19T03:21:32;38.33;;;24.98;;
43807;SDS011;29438;50.664;10.098;2022-08-19T03:24:00;36.80;;;24.15;;
43807;SDS011;29438;50.664;10.098;2022-08-19T03:26:28;36.22;;;23.98;;
43807;SDS011;29438;50.664;10.098;2022-08-19T03:28:54;38.13;;;23.90;;
43807;SDS011;29438;50.664;10.098;2022-08-19T03:31:21;36.72;;;23.63;;
43807;SDS011;29438;50.664;10.098;2022-08-19T03:33:50;37.60;;;24.83;;
43807;SDS011;29438;50.664;10.098;2022-08-19T03:36:17;38.38;;;23.55;;
43807;SDS011;29438;50.664;10.098;2022-08-19T03:38:48;37.97;;;24.30;;
43807;SDS011;29438;50.664;10.098;2022-08-19T03:41:19;40.08;;;24.02;;
43807;SDS011;29438;50.664;10.098;2022-08-19T03:43:46;40.38;;;24.50;;
43807;SDS011;29438;50.664;10.098;2022-08-19T03:46:13;41.83;;;24.50;;
43807;SDS011;29438;50.664;10.098;2022-08-19T03:48:41;42.70;;;25.00;;
43807;SDS011;29438;50.664;10.098;2022-08-19T03:51:08;40.88;;;25.15;;
43807;SDS011;29438;50.664;10.098;2022-08-19T03:53:44;41.45;;;24.38;;
43807;SDS011;29438;50.664;10.098;2022-08-19T03:56:10;41.92;;;25.08;;
43807;SDS011;29438;50.664;10.098;2022-08-19T03:58:36;39.50;;;24.77;;
43807;SDS011;29438;50.664;10.098;2022-08-19T04:01:06;41.20;;;24.52;;
43807;SDS011;29438;50.664;10.098;2022-08-19T04:03:32;40.53;;;24.30;;
43807;SDS011;29438;50.664;10.098;2022-08-19T04:05:58;44.92;;;25.80;;
43807;SDS011;29438;50.664;10.098;2022-08-19T04:08:23;41.13;;;24.63;;
43807;SDS011;29438;50.664;10.098;2022-08-19T04:10:49;44.05;;;26.15;;
43807;SDS011;29438;50.664;10.098;2022-08-19T04:13:15;41.63;;;24.67;;
43807;SDS011;29438;50.664;10.098;2022-08-19T04:15:42;41.78;;;25.17;;
43807;SDS011;29438;50.664;10.098;2022-08-19T04:18:11;40.78;;;24.33;;
43807;SDS011;29438;50.664;10.098;2022-08-19T04:20:38;43.53;;;25.65;;
43807;SDS011;29438;50.664;10.098;2022-08-19T04:23:05;42.97;;;26.20;;
43807;SDS011;29438;50.664;10.098;2022-08-19T04:25:35;43.35;;;25.25;;
43807;SDS011;29438;50.664;10.098;2022-08-19T04:28:02;41.25;;;25.92;;
43807;SDS011;29438;50.664;10.098;2022-08-19T04:30:27;42.55;;;25.67;;
43807;SDS011;29438;50.664;10.098;2022-08-19T04:32:53;44.55;;;25.63;;
43807;SDS011;29438;50.664;10.098;2022-08-19T04:35:18;40.13;;;25.08;;
43807;SDS011;29438;50.664;10.098;2022-08-19T04:37:44;41.50;;;25.33;;
43807;SDS011;29438;50.664;10.098;2022-08-19T04:40:10;40.78;;;25.15;;
43807;SDS011;29438;50.664;10.098;2022-08-19T04:42:54;38.88;;;23.65;;
43807;SDS011;29438;50.664;10.098;2022-08-19T04:45:19;38.35;;;24.58;;
43807;SDS011;29438;50.664;10.098;2022-08-19T04:47:45;39.25;;;23.58;;
43807;SDS011;29438;50.664;10.098;2022-08-19T04:50:11;35.97;;;22.48;;
43807;SDS011;29438;50.664;10.098;2022-08-19T04:52:37;33.97;;;22.50;;
43807;SDS011;29438;50.664;10.098;2022-08-19T04:55:07;36.25;;;23.63;;
43807;SDS011;29438;50.664;10.098;2022-08-19T04:57:33;35.05;;;21.42;;
43807;SDS011;29438;50.664;10.098;2022-08-19T04:59:58;34.78;;;22.15;;
43807;SDS011;29438;50.664;10.098;2022-08-19T05:02:24;32.20;;;20.85;;
43807;SDS011;29438;50.664;10.098;2022-08-19T05:04:50;33.50;;;21.55;;
43807;SDS011;29438;50.664;10.098;2022-08-19T05:07:21;30.90;;;20.17;;
43807;SDS011;29438;50.664;10.098;2022-08-19T05:09:46;31.88;;;21.15;;
43807;SDS011;29438;50.664;10.098;2022-08-19T05:12:12;31.83;;;20.17;;
43807;SDS011;29438;50.664;10.098;2022-08-19T05:14:37;29.00;;;18.85;;
43807;SDS011;29438;50.664;10.098;2022-08-19T05:17:03;30.45;;;20.35;;
43807;SDS011;29438;50.664;10.098;2022-08-19T05:19:28;31.13;;;20.35;;
43807;SDS011;29438;50.664;10.098;2022-08-19T05:22:13;29.83;;;19.40;;
43807;SDS011;29438;50.664;10.098;2022-08-19T05:27:22;29.52;;;19.13;;
43807;SDS011;29438;50.664;10.098;2022-08-19T05:29:48;26.50;;;18.20;;
43807;SDS011;29438;50.664;10.098;2022-08-19T05:32:13;27.10;;;18.63;;
43807;SDS011;29438;50.664;10.098;2022-08-19T05:34:39;26.55;;;17.75;;
43807;SDS011;29438;50.664;10.098;2022-08-19T05:37:05;24.65;;;17.48;;
43807;SDS011;29438;50.664;10.098;2022-08-19T05:39:33;26.23;;;17.05;;
43807;SDS011;29438;50.664;10.098;2022-08-19T05:42:02;24.48;;;16.88;;
43807;SDS011;29438;50.664;10.098;2022-08-19T05:44:32;22.70;;;15.80;;
43807;SDS011;29438;50.664;10.098;2022-08-19T05:47:00;23.83;;;16.13;;
43807;SDS011;29438;50.664;10.098;2022-08-19T05:49:27;20.98;;;14.85;;
43807;SDS011;29438;50.664;10.098;2022-08-19T05:51:54;21.65;;;14.65;;
43807;SDS011;29438;50.664;10.098;2022-08-19T05:54:21;21.73;;;15.35;;
43807;SDS011;29438;50.664;10.098;2022-08-19T05:56:48;20.63;;;14.50;;
43807;SDS011;29438;50.664;10.098;2022-08-19T05:59:15;20.10;;;14.80;;
43807;SDS011;29438;50.664;10.098;2022-08-19T06:01:42;20.73;;;14.57;;
43807;SDS011;29438;50.664;10.098;2022-08-19T06:04:10;18.77;;;14.07;;
43807;SDS011;29438;50.664;10.098;2022-08-19T06:06:38;22.50;;;14.30;;
43807;SDS011;29438;50.664;10.098;2022-08-19T06:09:04;19.25;;;13.60;;
43807;SDS011;29438;50.664;10.098;2022-08-19T06:14:10;18.30;;;12.63;;
43807;SDS011;29438;50.664;10.098;2022-08-19T06:16:38;16.50;;;11.98;;
43807;SDS011;29438;50.664;10.098;2022-08-19T06:19:07;16.48;;;12.02;;
43807;SDS011;29438;50.664;10.098;2022-08-19T06:21:35;15.73;;;12.18;;
43807;SDS011;29438;50.664;10.098;2022-08-19T06:24:03;15.68;;;11.95;;
43807;SDS011;29438;50.664;10.098;2022-08-19T06:26:33;15.40;;;11.50;;
43807;SDS011;29438;50.664;10.098;2022-08-19T06:29:01;19.15;;;11.68;;
43807;SDS011;29438;50.664;10.098;2022-08-19T06:31:28;16.90;;;11.70;;
43807;SDS011;29438;50.664;10.098;2022-08-19T06:33:54;16.45;;;11.65;;
43807;SDS011;29438;50.664;10.098;2022-08-19T06:38:47;15.00;;;11.20;;
43807;SDS011;29438;50.664;10.098;2022-08-19T06:41:13;16.00;;;11.82;;
43807;SDS011;29438;50.664;10.098;2022-08-19T06:43:38;14.98;;;10.70;;
43807;SDS011;29438;50.664;10.098;2022-08-19T06:46:09;14.88;;;9.82;;
43807;SDS011;29438;50.664;10.098;2022-08-19T06:48:36;13.48;;;10.38;;
43807;SDS011;29438;50.664;10.098;2022-08-19T06:51:02;16.95;;;11.55;;
43807;SDS011;29438;50.664;10.098;2022-08-19T06:53:30;15.45;;;10.63;;
43807;SDS011;29438;50.664;10.098;2022-08-19T06:55:55;15.23;;;10.82;;
43807;SDS011;29438;50.664;10.098;2022-08-19T06:58:25;15.13;;;10.20;;
43807;SDS011;29438;50.664;10.098;2022-08-19T07:00:50;15.25;;;10.85;;
43807;SDS011;29438;50.664;10.098;2022-08-19T07:03:16;14.73;;;11.10;;
43807;SDS011;29438;50.664;10.098;2022-08-19T07:05:42;13.52;;;9.85;;
43807;SDS011;29438;50.664;10.098;2022-08-19T07:08:08;13.52;;;9.10;;
43807;SDS011;29438;50.664;10.098;2022-08-19T07:10:34;13.20;;;9.07;;
43807;SDS011;29438;50.664;10.098;2022-08-19T07:13:01;14.48;;;8.73;;
43807;SDS011;29438;50.664;10.098;2022-08-19T07:15:28;12.13;;;8.43;;
43807;SDS011;29438;50.664;10.098;2022-08-19T07:17:57;9.60;;;7.18;;
43807;SDS011;29438;50.664;10.098;2022-08-19T07:20:23;9.23;;;7.25;;
43807;SDS011;29438;50.664;10.098;2022-08-19T07:22:48;10.07;;;7.43;;
43807;SDS011;29438;50.664;10.098;2022-08-19T07:25:14;10.82;;;7.85;;
43807;SDS011;29438;50.664;10.098;2022-08-19T07:27:42;11.63;;;8.63;;
43807;SDS011;29438;50.664;10.098;2022-08-19T07:30:09;11.30;;;8.07;;
43807;SDS011;29438;50.664;10.098;2022-08-19T07:32:36;11.77;;;7.82;;
43807;SDS011;29438;50.664;10.098;2022-08-19T07:35:02;10.88;;;7.47;;
43807;SDS011;29438;50.664;10.098;2022-08-19T07:37:28;9.75;;;6.88;;
43807;SDS011;29438;50.664;10.098;2022-08-19T07:39:53;7.70;;;6.35;;
43807;SDS011;29438;50.664;10.098;2022-08-19T07:42:19;8.73;;;6.25;;
43807;SDS011;29438;50.664;10.098;2022-08-19T07:44:46;8.63;;;6.72;;
43807;SDS011;29438;50.664;10.098;2022-08-19T07:47:12;9.63;;;5.50;;
43807;SDS011;29438;50.664;10.098;2022-08-19T07:49:40;6.80;;;4.90;;
43807;SDS011;29438;50.664;10.098;2022-08-19T07:52:07;7.38;;;4.47;;
43807;SDS011;29438;50.664;10.098;2022-08-19T07:54:34;6.63;;;4.72;;
43807;SDS011;29438;50.664;10.098;2022-08-19T07:57:01;8.63;;;4.88;;
43807;SDS011;29438;50.664;10.098;2022-08-19T07:59:27;6.47;;;3.92;;
43807;SDS011;29438;50.664;10.098;2022-08-19T08:01:54;7.57;;;4.20;;
43807;SDS011;29438;50.664;10.098;2022-08-19T08:04:20;6.03;;;3.70;;
43807;SDS011;29438;50.664;10.098;2022-08-19T08:07:05;5.43;;;3.63;;
43807;SDS011;29438;50.664;10.098;2022-08-19T08:09:51;4.20;;;2.70;;
43807;SDS011;29438;50.664;10.098;2022-08-19T08:12:19;3.70;;;2.58;;
43807;SDS011;29438;50.664;10.098;2022-08-19T08:14:50;2.92;;;2.35;;
43807;SDS011;29438;50.664;10.098;2022-08-19T08:17:19;3.65;;;2.17;;
43807;SDS011;29438;50.664;10.098;2022-08-19T08:19:45;3.70;;;2.20;;
43807;SDS011;29438;50.664;10.098;2022-08-19T08:22:14;5.60;;;2.80;;
43807;SDS011;29438;50.664;10.098;2022-08-19T08:25:07;4.18;;;2.00;;
43807;SDS011;29438;50.664;10.098;2022-08-19T08:27:39;3.95;;;1.83;;
43807;SDS011;29438;50.664;10.098;2022-08-19T08:30:07;2.70;;;2.03;;
43807;SDS011;29438;50.664;10.098;2022-08-19T08:32:35;3.20;;;2.10;;
43807;SDS011;29438;50.664;10.098;2022-08-19T08:35:02;2.85;;;2.20;;
43807;SDS011;29438;50.664;10.098;2022-08-19T08:37:32;3.65;;;2.15;;
43807;SDS011;29438;50.664;10.098;2022-08-19T08:39:58;3.00;;;2.00;;
43807;SDS011;29438;50.664;10.098;2022-08-19T08:42:27;3.38;;;2.20;;
43807;SDS011;29438;50.664;10.098;2022-08-19T08:45:10;4.28;;;2.25;;
43807;SDS011;29438;50.664;10.098;2022-08-19T08:47:41;2.60;;;1.90;;
43807;SDS011;29438;50.664;10.098;2022-08-19T08:50:13;2.50;;;2.00;;
43807;SDS011;29438;50.664;10.098;2022-08-19T08:52:45;3.15;;;2.22;;
43807;SDS011;29438;50.664;10.098;2022-08-19T08:55:17;3.17;;;1.88;;
43807;SDS011;29438;50.664;10.098;2022-08-19T09:00:17;3.92;;;2.35;;
43807;SDS011;29438;50.664;10.098;2022-08-19T09:02:45;3.55;;;2.25;;
43807;SDS011;29438;50.664;10.098;2022-08-19T09:05:11;2.85;;;2.00;;
43807;SDS011;29438;50.664;10.098;2022-08-19T09:07:56;3.50;;;2.40;;
43807;SDS011;29438;50.664;10.098;2022-08-19T09:10:40;2.92;;;1.90;;
43807;SDS011;29438;50.664;10.098;2022-08-19T09:15:45;4.10;;;2.03;;
43807;SDS011;29438;50.664;10.098;2022-08-19T09:18:17;3.38;;;2.30;;
43807;SDS011;29438;50.664;10.098;2022-08-19T09:20:43;3.67;;;2.35;;
43807;SDS011;29438;50.664;10.098;2022-08-19T09:23:12;4.43;;;2.83;;
43807;SDS011;29438;50.664;10.098;2022-08-19T09:25:37;3.08;;;1.95;;
43807;SDS011;29438;50.664;10.098;2022-08-19T09:28:04;3.92;;;2.50;;
43807;SDS011;29438;50.664;10.098;2022-08-19T09:30:32;4.65;;;2.83;;
43807;SDS011;29438;50.664;10.098;2022-08-19T09:33:02;3.33;;;2.78;;
43807;SDS011;29438;50.664;10.098;2022-08-19T09:35:28;2.78;;;2.20;;
43807;SDS011;29438;50.664;10.098;2022-08-19T09:37:55;3.22;;;2.20;;
43807;SDS011;29438;50.664;10.098;2022-08-19T09:40:22;3.58;;;1.90;;
43807;SDS011;29438;50.664;10.098;2022-08-19T09:42:48;3.42;;;2.00;;
43807;SDS011;29438;50.664;10.098;2022-08-19T09:45:14;3.50;;;2.33;;
43807;SDS011;29438;50.664;10.098;2022-08-19T09:47:41;4.07;;;2.20;;
43807;SDS011;29438;50.664;10.098;2022-08-19T09:50:08;4.20;;;2.47;;
43807;SDS011;29438;50.664;10.098;2022-08-19T09:52:36;3.90;;;2.28;;
43807;SDS011;29438;50.664;10.098;2022-08-19T09:55:06;3.70;;;2.13;;
43807;SDS011;29438;50.664;10.098;2022-08-19T09:57:32;3.67;;;2.35;;
43807;SDS011;29438;50.664;10.098;2022-08-19T09:59:58;2.63;;;1.83;;
43807;SDS011;29438;50.664;10.098;2022-08-19T10:02:24;2.80;;;2.00;;
43807;SDS011;29438;50.664;10.098;2022-08-19T10:04:50;4.65;;;1.83;;
43807;SDS011;29438;50.664;10.098;2022-08-19T10:07:34;4.63;;;2.10;;
43807;SDS011;29438;50.664;10.098;2022-08-19T10:10:00;2.95;;;1.80;;
43807;SDS011;29438;50.664;10.098;2022-08-19T10:12:25;2.45;;;1.90;;
43807;SDS011;29438;50.664;10.098;2022-08-19T10:14:51;2.70;;;1.90;;
43807;SDS011;29438;50.664;10.098;2022-08-19T10:17:18;4.95;;;1.98;;
43807;SDS011;29438;50.664;10.098;2022-08-19T10:19:43;3.72;;;1.73;;
43807;SDS011;29438;50.664;10.098;2022-08-19T10:22:09;2.17;;;1.70;;
43807;SDS011;29438;50.664;10.098;2022-08-19T10:24:39;3.13;;;1.70;;
43807;SDS011;29438;50.664;10.098;2022-08-19T10:27:05;2.15;;;1.42;;
43807;SDS011;29438;50.664;10.098;2022-08-19T10:29:30;2.70;;;1.58;;
43807;SDS011;29438;50.664;10.098;2022-08-19T10:31:59;3.25;;;1.80;;
43807;SDS011;29438;50.664;10.098;2022-08-19T10:34:27;3.45;;;1.80;;
43807;SDS011;29438;50.664;10.098;2022-08-19T10:36:54;2.75;;;1.67;;
43807;SDS011;29438;50.664;10.098;2022-08-19T10:39:20;2.88;;;1.70;;
43807;SDS011;29438;50.664;10.098;2022-08-19T10:41:45;3.20;;;1.95;;
43807;SDS011;29438;50.664;10.098;2022-08-19T10:44:12;3.03;;;1.95;;
43807;SDS011;29438;50.664;10.098;2022-08-19T10:46:41;2.33;;;1.85;;
43807;SDS011;29438;50.664;10.098;2022-08-19T10:49:11;2.80;;;1.88;;
43807;SDS011;29438;50.664;10.098;2022-08-19T10:51:38;2.95;;;1.83;;
43807;SDS011;29438;50.664;10.098;2022-08-19T10:54:23;3.22;;;1.92;;
43807;SDS011;29438;50.664;10.098;2022-08-19T10:57:09;3.63;;;2.00;;
43807;SDS011;29438;50.664;10.098;2022-08-19T10:59:34;2.95;;;2.00;;
43807;SDS011;29438;50.664;10.098;2022-08-19T11:02:01;2.13;;;1.80;;
43807;SDS011;29438;50.664;10.098;2022-08-19T11:04:28;2.63;;;1.90;;
43807;SDS011;29438;50.664;10.098;2022-08-19T11:06:55;3.83;;;1.92;;
43807;SDS011;29438;50.664;10.098;2022-08-19T11:09:21;3.88;;;2.08;;
43807;SDS011;29438;50.664;10.098;2022-08-19T11:11:52;4.15;;;1.85;;
43807;SDS011;29438;50.664;10.098;2022-08-19T11:14:18;3.65;;;2.10;;
43807;SDS011;29438;50.664;10.098;2022-08-19T11:16:46;3.03;;;1.60;;
43807;SDS011;29438;50.664;10.098;2022-08-19T11:19:12;2.78;;;1.80;;
43807;SDS011;29438;50.664;10.098;2022-08-19T11:21:40;2.88;;;1.95;;
43807;SDS011;29438;50.664;10.098;2022-08-19T11:24:11;4.93;;;2.78;;
43807;SDS011;29438;50.664;10.098;2022-08-19T11:26:38;3.60;;;1.90;;
43807;SDS011;29438;50.664;10.098;2022-08-19T11:29:06;3.75;;;1.88;;
43807;SDS011;29438;50.664;10.098;2022-08-19T11:31:38;2.92;;;1.70;;
43807;SDS011;29438;50.664;10.098;2022-08-19T11:34:06;3.42;;;1.90;;
43807;SDS011;29438;50.664;10.098;2022-08-19T11:36:34;3.10;;;1.70;;
43807;SDS011;29438;50.664;10.098;2022-08-19T11:39:03;2.15;;;1.65;;
43807;SDS011;29438;50.664;10.098;2022-08-19T11:41:30;2.40;;;1.70;;
43807;SDS011;29438;50.664;10.098;2022-08-19T11:43:55;2.67;;;1.75;;
43807;SDS011;29438;50.664;10.098;2022-08-19T11:46:22;3.38;;;1.90;;
43807;SDS011;29438;50.664;10.098;2022-08-19T11:48:49;2.58;;;1.65;;
43807;SDS011;29438;50.664;10.098;2022-08-19T11:51:17;3.03;;;1.67;;
43807;SDS011;29438;50.664;10.098;2022-08-19T11:53:45;2.90;;;1.48;;
43807;SDS011;29438;50.664;10.098;2022-08-19T11:56:10;2.97;;;1.60;;
43807;SDS011;29438;50.664;10.098;2022-08-19T11:58:36;2.78;;;1.50;;
43807;SDS011;29438;50.664;10.098;2022-08-19T12:01:07;3.25;;;1.55;;
43807;SDS011;29438;50.664;10.098;2022-08-19T12:03:33;3.28;;;2.08;;
43807;SDS011;29438;50.664;10.098;2022-08-19T12:06:03;2.83;;;1.88;;
43807;SDS011;29438;50.664;10.098;2022-08-19T12:08:37;3.13;;;2.20;;
43807;SDS011;29438;50.664;10.098;2022-08-19T12:11:03;3.03;;;2.15;;
43807;SDS011;29438;50.664;10.098;2022-08-19T12:13:29;2.83;;;2.33;;
43807;SDS011;29438;50.664;10.098;2022-08-19T12:15:55;3.75;;;2.67;;
43807;SDS011;29438;50.664;10.098;2022-08-19T12:18:22;4.38;;;2.40;;
43807;SDS011;29438;50.664;10.098;2022-08-19T12:20:47;4.47;;;2.50;;
43807;SDS011;29438;50.664;10.098;2022-08-19T12:23:15;4.35;;;2.50;;
43807;SDS011;29438;50.664;10.098;2022-08-19T12:25:45;3.75;;;2.35;;
43807;SDS011;29438;50.664;10.098;2022-08-19T12:28:15;3.47;;;2.47;;
43807;SDS011;29438;50.664;10.098;2022-08-19T12:30:41;3.92;;;2.20;;
43807;SDS011;29438;50.664;10.098;2022-08-19T12:33:06;4.55;;;2.22;;
43807;SDS011;29438;50.664;10.098;2022-08-19T12:35:32;3.92;;;2.35;;
43807;SDS011;29438;50.664;10.098;2022-08-19T12:37:58;4.95;;;2.25;;
43807;SDS011;29438;50.664;10.098;2022-08-19T12:40:29;2.90;;;2.10;;
43807;SDS011;29438;50.664;10.098;2022-08-19T12:42:54;3.08;;;2.00;;
43807;SDS011;29438;50.664;10.098;2022-08-19T12:45:20;2.67;;;1.88;;
43807;SDS011;29438;50.664;10.098;2022-08-19T12:47:46;2.60;;;1.73;;
43807;SDS011;29438;50.664;10.098;2022-08-19T12:50:12;3.08;;;2.20;;
43807;SDS011;29438;50.664;10.098;2022-08-19T12:52:38;3.35;;;1.83;;
43807;SDS011;29438;50.664;10.098;2022-08-19T12:55:04;3.05;;;1.65;;
43807;SDS011;29438;50.664;10.098;2022-08-19T12:57:31;3.25;;;2.20;;
43807;SDS011;29438;50.664;10.098;2022-08-19T13:00:00;2.88;;;2.30;;
43807;SDS011;29438;50.664;10.098;2022-08-19T13:02:37;4.88;;;2.30;;
43807;SDS011;29438;50.664;10.098;2022-08-19T13:05:07;2.63;;;2.10;;
43807;SDS011;29438;50.664;10.098;2022-08-19T13:07:35;4.78;;;1.90;;
43807;SDS011;29438;50.664;10.098;2022-08-19T13:10:03;2.78;;;2.03;;
43807;SDS011;29438;50.664;10.098;2022-08-19T13:12:30;2.38;;;1.92;;
43807;SDS011;29438;50.664;10.098;2022-08-19T13:14:56;3.50;;;2.10;;
43807;SDS011;29438;50.664;10.098;2022-08-19T13:17:21;2.40;;;2.13;;
43807;SDS011;29438;50.664;10.098;2022-08-19T13:19:47;3.72;;;2.25;;
43807;SDS011;29438;50.664;10.098;2022-08-19T13:22:13;3.38;;;2.10;;
43807;SDS011;29438;50.664;10.098;2022-08-19T13:24:39;2.90;;;2.05;;
43807;SDS011;29438;50.664;10.098;2022-08-19T13:27:04;2.63;;;1.80;;
43807;SDS011;29438;50.664;10.098;2022-08-19T13:29:31;3.10;;;2.00;;
43807;SDS011;29438;50.664;10.098;2022-08-19T13:32:16;3.22;;;1.70;;
43807;SDS011;29438;50.664;10.098;2022-08-19T13:35:00;2.72;;;1.75;;
43807;SDS011;29438;50.664;10.098;2022-08-19T13:37:26;2.70;;;1.75;;
43807;SDS011;29438;50.664;10.098;2022-08-19T13:40:10;2.83;;;1.90;;
43807;SDS011;29438;50.664;10.098;2022-08-19T13:42:41;2.83;;;1.80;;
43807;SDS011;29438;50.664;10.098;2022-08-19T13:45:08;2.92;;;1.77;;
43807;SDS011;29438;50.664;10.098;2022-08-19T13:47:35;4.10;;;1.85;;
43807;SDS011;29438;50.664;10.098;2022-08-19T13:50:03;2.92;;;2.00;;
43807;SDS011;29438;50.664;10.098;2022-08-19T13:52:29;2.83;;;1.63;;
43807;SDS011;29438;50.664;10.098;2022-08-19T13:54:55;3.50;;;1.70;;
43807;SDS011;29438;50.664;10.098;2022-08-19T13:57:21;3.70;;;1.90;;
43807;SDS011;29438;50.664;10.098;2022-08-19T13:59:47;2.80;;;2.00;;
43807;SDS011;29438;50.664;10.098;2022-08-19T14:02:12;2.70;;;1.65;;
43807;SDS011;29438;50.664;10.098;2022-08-19T14:07:39;3.00;;;1.90;;
43807;SDS011;29438;50.664;10.098;2022-08-19T14:10:04;2.33;;;1.95;;
43807;SDS011;29438;50.664;10.098;2022-08-19T14:12:32;3.22;;;2.20;;
43807;SDS011;29438;50.664;10.098;2022-08-19T14:14:58;2.55;;;1.77;;
43807;SDS011;29438;50.664;10.098;2022-08-19T14:17:24;2.78;;;1.77;;
43807;SDS011;29438;50.664;10.098;2022-08-19T14:19:50;2.67;;;1.90;;
43807;SDS011;29438;50.664;10.098;2022-08-19T14:22:32;3.05;;;2.00;;
43807;SDS011;29438;50.664;10.098;2022-08-19T14:24:59;3.53;;;2.00;;
43807;SDS011;29438;50.664;10.098;2022-08-19T14:27:25;3.33;;;2.10;;
43807;SDS011;29438;50.664;10.098;2022-08-19T14:29:53;3.13;;;2.00;;
43807;SDS011;29438;50.664;10.098;2022-08-19T14:32:20;3.40;;;1.85;;
43807;SDS011;29438;50.664;10.098;2022-08-19T14:34:46;3.33;;;2.15;;
43807;SDS011;29438;50.664;10.098;2022-08-19T14:37:12;2.40;;;1.83;;
43807;SDS011;29438;50.664;10.098;2022-08-19T14:39:41;3.15;;;1.80;;